Nocona, Texas
Current Conditions -  °F | °C
As of 5:15 AM on Thursday 18 Dec 2014 (Local Time) from K0F2 Reporting Station
Haze Haze  
Wind Chill: 37°   Ceiling: 300
Heat Index: 40°   Visibility: 0.75mi
Dew Point: 40°   Wind: 5mph
Humidity: 100%   Direction: 100°E
Pressure: 30.09"   Gusts: NA
Location:  33.79°N, 97.73°W
Report Text: K0F2 181115Z AUTO 10004KT 3/4SM BR OVC003 05/05 A3009 RMK AO2 T00450045
Loading
Personal Weather Stations






























Interactive Weather Map New forecast layout! Learn more

10-Day Weather Forecast

Advertisements
Track Severe Weather on mobile